Laman API Video Percuma Terbaik

AVDBAPI.COM

Cari katalog, semak rekod, dan salin URL API bersih daripada papan pemuka pantas.

Telegram Join Our Telegram Community for Updates!
Today
31
Kemaskini Hari Ini
Censored
314121
Censored Videos
Total
474300
Total Videos

Senarai Video

Rekod terkini disusun mengikut masa kemas kini.

ID Nama CODE Kategori Dikemaskini API
270654 H0930-KI190326 Nami Tachikawa Umur 23 Tahun H0930-KI190326 Tanpa sensor 2025-08-29 19:47:20 API
270653 040418-244 Buku Foto Kemaluan Isteri Orang 69 040418-244 Tanpa sensor 2025-08-29 19:47:10 API
270652 H4610-KI200223 Gadis Cantik 19 Tahun Ai Sasaki H4610-KI200223 Tanpa sensor 2025-08-29 19:47:00 API
270651 HEYZO-2049 Menakluki Tubuh Erotik Dengan Kesabaran HEYZO-2049 Tanpa sensor 2025-08-29 19:46:50 API
270650 K1323 Wanita Mangsa K1323 Tanpa sensor 2025-08-29 19:46:40 API
270649 060617_536 Pancutan Squirting Gila! Edisi Khas 060617_536 Tanpa sensor 2025-08-29 19:46:30 API
270648 081819-986 Saya takkan biarkan awak buat macam tu ~ Nafsu Satomi takkan berhenti walaupun awak tak sabar ~ Satomi Suzuki 081819-986 Tanpa sensor 2025-08-29 19:46:20 API
270647 C0930-KI181103 Gold Pack Padu Untuk Gadis 20 Tahun C0930-KI181103 Tanpa sensor 2025-08-29 19:46:10 API
270646 040518-245 Telan Mani Bersama Isteri Orang 65 ~ 3P! Wanita matang kulit mulus yang telan mani dua kali berturut-turut ~ 040518-245 Tanpa sensor 2025-08-29 19:46:00 API
270645 H0930-KI190328 Sachiko Ono Wanita Matang 48 Tahun H0930-KI190328 Tanpa sensor 2025-08-29 19:45:50 API
270644 H4610-KI200225 Gadis Hot 24 Tahun Naho Kirishima H4610-KI200225 Tanpa sensor 2025-08-29 19:45:40 API
270643 FC2-PPV-1035997 [Tanpa Sensor] [Versi Lengkap] Mion Sonoda 01 Bocor - Mion Sonoda ABP-601 1VS1 [Tanpa Lakonan] Naluri Liar Satu Lawan Satu ACT.08 FC2-PPV-1035997 Tanpa sensor 2025-08-29 19:45:30 API
270642 HEYZO-2050 Gadis montok dada besar ni klimaks hebat! HEYZO-2050 Tanpa sensor 2025-08-29 19:45:20 API
270641 K1322 Mangsa Wanita - K1322 Tanpa sensor 2025-08-29 19:45:10 API
270640 081919-987 Versi Tidak Diterbitkan ~ Rena Onani Sampai Squirting Sebab Terlalu Sedap ~ 081919-987 Tanpa sensor 2025-08-29 19:45:00 API
270639 061017_538 OL Cantik Terus Naik Atas Rina Nanase Untuk Kongkek 061017_538 Tanpa sensor 2025-08-29 19:44:50 API
270638 H0930-ORI1530 Wanita Matang 45 Tahun Yoshie Takayama H0930-ORI1530 Tanpa sensor 2025-08-29 19:44:40 API
270637 C0930-HITOZUMA1260 Koyori Takao 37 Tahun C0930-HITOZUMA1260 Tanpa sensor 2025-08-29 19:44:30 API
270636 091818-01 Penggambaran amatur pertama! Maafkan saya ayah 091818-01 Tanpa sensor 2025-08-29 19:44:20 API
270634 082019-988 Cara Main 3P Dengan Bule: Yui Nanami, Asuka, Claire 082019-988 Tanpa sensor 2025-08-29 19:44:00 API
270633 HEYZO-2053 Nikmat Urutan Erotik! ~ Bersama Miyu Shiina ~ HEYZO-2053 Tanpa sensor 2025-08-29 19:43:50 API
270632 040718-246 Telan Mani Isteri Berperut Buncit 66 ~ Payudara Besar Cup I Wanita Matang ~ 040718-246 Tanpa sensor 2025-08-29 19:43:40 API
270631 061317_539 Mengurat pelari cantik yang tidak memakai bra Masaki Uehara 061317_539 Tanpa sensor 2025-08-29 19:43:30 API
270630 H4610-KI200303 Yuka Kawano Gadis 21 Tahun H4610-KI200303 Tanpa sensor 2025-08-29 19:43:20 API
270628 FC2-PPV-1056981 [Kebocoran Tanpa Sensor] Amatur dari syarikat ubat nyamuk bocor. SIRO-3176 [Penggambaran pertama] Permohonan AV di internet → Penggambaran pengalaman AV 414 FC2-PPV-1056981 Tanpa sensor 2025-08-29 19:43:00 API
270627 H0930-KI190402 Ritsuko Motomura 36 Tahun H0930-KI190402 Tanpa sensor 2025-08-29 19:42:50 API
270626 C0930-KI181106 Yuka Tsutsui 43 tahun C0930-KI181106 Tanpa sensor 2025-08-29 19:42:40 API
270625 082119-989 Seperti Dulu ~ Menjadi AV Adalah Panggilan Jiwa ~ Maki Kozue 082119-989 Tanpa sensor 2025-08-29 19:42:30 API
270624 HEYZO-2081 Morino Shizuku Pancutan Mani Dalam Untuk Gadis Putih Berdada Besar HEYZO-2081 Tanpa sensor 2025-08-29 19:42:20 API
270623 041018-247 Telan Mani Isteri Orang 67 ~ Pertama kali pada lewat usia 20-an, kemudian menjadi pelacur ketagih mani ~ 041018-247 Tanpa sensor 2025-08-29 19:42:10 API
270622 H4610-KI200305 Sonoda Suzu Umur 23 Tahun H4610-KI200305 Tanpa sensor 2025-08-29 19:42:00 API
270621 092018-01 Aku Menjadi Mangsa Tukang Urut Seksi 092018-01 Tanpa sensor 2025-08-29 19:41:50 API
270620 FC2-PPV-1053728 [Tanpa Sensor/Bocor] [Harta Karun!!] Kebocoran Yuki Kiyoshi [Termasuk fail zip boleh dimuat turun] Yuki Kiyoshi gana-1414 Shot pertama yang sangat lembut. 866 di Ikebukuro FC2-PPV-1053728 Tanpa sensor 2025-08-29 19:41:40 API
270619 061517_540 Wanita cantik pemangsa yang sangat seksi melawat rumah amatur untuk bersetubuh 061517_540 Tanpa sensor 2025-08-29 19:41:30 API
270618 OYC-112 Rumah aku jadi tempat lepak budak-budak gal, dan ada sorang gal murahan yang bagi kau kangkang dan kangkang dia bila-bila masa saja! 2 OYC-112 Mosaik 2025-08-29 19:41:20 API
270617 HEYZO-2054 Tunang saya yang cantik dan ternama sedang main dengan ayah saya HEYZO-2054 Tanpa sensor 2025-08-29 19:41:10 API
270616 H0930-KI190404 Wanita Seksi 32 Tahun Shoko Furuta H0930-KI190404 Tanpa sensor 2025-08-29 19:41:00 API
270615 C0930-KI181111 Ayaka Sato Wanita Cantik Berusia 28 Tahun C0930-KI181111 Tanpa sensor 2025-08-29 19:40:50 API
270614 K1324 Wanita Mangsa K1324 Tanpa sensor 2025-08-29 19:40:40 API
270613 061717_541 Malaikat Beruniform Yang Pemalu 061717_541 Tanpa sensor 2025-08-29 19:40:30 API
270612 H4610-TK0014 Gadis Berusia 20 Tahun Chisato Minehara H4610-TK0014 Tanpa sensor 2025-08-29 19:40:20 API
270611 041218-248 Memujuk Suri Rumah 38 Tahun ~ Mengintai Rahsia... Ibu Dengan Puting Panjang 041218-248 Tanpa sensor 2025-08-29 19:40:10 API
270610 082219-990 Versi Tidak Diterbitkan ~ Mania Punggung Khusus Untukmu ~ Yuuna Himekawa 082219-990 Tanpa sensor 2025-08-29 19:40:00 API
270609 H0930-KI190407 Wanita Matang 40 Tahun Yoshie Tomizawa H0930-KI190407 Tanpa sensor 2025-08-29 19:39:50 API
270607 C0930-HITOZUMA1261 Isteri Menggoda Berusia 38 Tahun Sugiyama Tamao C0930-HITOZUMA1261 Tanpa sensor 2025-08-29 19:39:30 API
270605 FC2-PPV-1040390 [Tanpa Sensor] [Versi Penuh] Kebocoran Eiro Chika SERO-0028 Telan Mani di Sekolah Persediaan FC2-PPV-1040390 Tanpa sensor 2025-08-29 19:39:10 API
270604 092318-01 Kompilasi Gadis Amatir Terbaik Bahagian 2 092318-01 Tanpa sensor 2025-08-29 19:39:00 API
270603 062017_542 Terjemahan Salah! Ami Tsuchiya memakai cermin mata hitam sedang tunggang saddle! 062017_542 Tanpa sensor 2025-08-29 19:38:50 API
270601 H0930-ORI1531 Wanita Seksi 38 Tahun Katsumi Nakatsuji H0930-ORI1531 Tanpa sensor 2025-08-29 19:38:30 API
270600 H4610-KI200308 Wanita Cantik Berusia 26 Tahun Mai Katagiri H4610-KI200308 Tanpa sensor 2025-08-29 19:38:20 API